Airfield :
LOGIN :

Register | Disclaimer

   EN    FR    IT 

 










Legend :    VFR   Marginal VFR   IFR   Intensive IFR   Very Intensive IFR
Visi :
Ceiling :
>= 8 km
>= 3000ft
5 to 8 km
1000 to 3000 ft
1500m to 5 km
500 to 1000 ft
800 to 1500m
200 to 500 ft
< 800m
< 200 ft
Symbols :   Thunderstorms  Fog  Heavy snow  Heavy precipitations  Wind > 20 kt
SIGMETs :     Misc.  Thunderstorms  Icing  Turbulence  Mountain Waves  Volcanic Ashes






- Airport Elevation : 465 ft
- IATA code : OMR


LROD - Oradea International

CURRENT METAR :
  • 281000Z 31003KT 280V340 6000 SCT005 04/03 Q1024

EXPIRED METARs :
  • 280930Z 29003KT 250V320 5000 BR SCT004 04/03 Q1024
  • 280900Z 30004KT 5000 BR FEW005 04/03 Q1024
  • 280830Z 28002KT 6000 NSC 04/03 Q1024
  • 280800Z 00000KT 4500 BR NSC 04/03 Q1024
  • 280730Z 14002KT 4400 BR NSC 04/03 Q1024

TAF TAF LROD
Valid from the 28 at 09:00 until the 28 at 18:00 UTC


280800Z 2809/2818 VRB04KT 5000 BR NSC
TEMPO 2809/2811 9999 NSW
BECMG 2815/2817 3000 BR BKN010



MET'MAP, your aeronautical weather chart ! - Copyright ORBIFLY December 2007 - Disclaimer

ORBIFLY MET'MAP TEAM :

Programming & Development : Alexandra Zaïnal
Original concept : Baudouin d'Aumeries
Technical & hardware support : Manuel Goepfert
Assistance : Marc-Olivier Méhu




SOURCES & CREDITS :

   NOAA